Albatros — DITX — position and weather

sailwx.info

Track history (hours):
 
Tides and Currents Weather Stations Pressure Air Temp Water Temp Dewpoint Dewpoint Depression Visibility Wind Speed Wind Dir Waves Ship Positions

Albatros

Last reported at 2017-Aug-17 09:39 UTC. Time now 2017-Sep-21 23:22 UTC.
Position N 54°42' E 013°12'.
Warning: this ship's position is 35 days out of date.

Length 16 m; draft 2 m.

MMSI: 211226200.

Date/timePositionNaut miles runAvg speedWind from/ knotsBaromVisibWave heightAir tempDewpointWater temp
2017-Aug-17 09:39N 54°42' E 013°12'0 1.2
2017-Aug-17 09:31N 54°42' E 013°13'0 0.2
2017-Aug-17 08:57N 54°42' E 013°13'7 3.2
2017-Aug-17 06:54N 54°35' E 013°10'  
2017-Aug-11 11:42N 54°41' E 013°12'0 2.4
2017-Aug-11 11:30N 54°41' E 013°12'0 0.3
2017-Aug-11 11:00N 54°41' E 013°12'0 0.9
2017-Aug-11 10:29N 54°42' E 013°13'0 0.4
2017-Aug-11 09:29N 54°41' E 013°12'8 2.2
2017-Aug-11 05:42N 54°33' E 013°10'2 4.0
2017-Aug-11 05:13N 54°31' E 013°08'  
Track history (hours):
 
Tides and Currents Weather Stations Pressure Air Temp Water Temp Dewpoint Dewpoint Depression Visibility Wind Speed Wind Dir Waves Ship Positions

Albatros

Last reported at 2017-Aug-17 09:39 UTC. Time now 2017-Sep-21 23:22 UTC.
Position N 54°42' E 013°12'.
Warning: this ship's position is 35 days out of date.

Length 16 m; draft 2 m.

MMSI: 211226200.

Date/timePositionNaut miles runAvg speedWind from/ knotsBaromVisibWave heightAir tempDewpointWater temp
2017-Aug-17 09:39N 54°42' E 013°12'0 1.2
2017-Aug-17 09:31N 54°42' E 013°13'0 0.2
2017-Aug-17 08:57N 54°42' E 013°13'7 3.2
2017-Aug-17 06:54N 54°35' E 013°10'  
2017-Aug-11 11:42N 54°41' E 013°12'0 2.4
2017-Aug-11 11:30N 54°41' E 013°12'0 0.3
2017-Aug-11 11:00N 54°41' E 013°12'0 0.9
2017-Aug-11 10:29N 54°42' E 013°13'0 0.4
2017-Aug-11 09:29N 54°41' E 013°12'8 2.2
2017-Aug-11 05:42N 54°33' E 013°10'2 4.0
2017-Aug-11 05:13N 54°31' E 013°08'  

Dump ship's entire track history